sensor_id;sensor_type;location;lat;lon;timestamp;temperature;humidity
47022;DHT22;32779;52.264;6.154;2023-04-25T00:01:46;6.70;99.90
47022;DHT22;32779;52.264;6.154;2023-04-25T00:04:11;6.70;99.90
47022;DHT22;32779;52.264;6.154;2023-04-25T00:06:37;6.70;99.90
47022;DHT22;32779;52.264;6.154;2023-04-25T00:09:04;6.70;99.90
47022;DHT22;32779;52.264;6.154;2023-04-25T00:11:33;6.70;99.90
47022;DHT22;32779;52.264;6.154;2023-04-25T00:13:58;6.70;99.90
47022;DHT22;32779;52.264;6.154;2023-04-25T00:16:25;6.70;99.90
47022;DHT22;32779;52.264;6.154;2023-04-25T00:18:50;6.70;99.90
47022;DHT22;32779;52.264;6.154;2023-04-25T00:21:19;6.70;99.90
47022;DHT22;32779;52.264;6.154;2023-04-25T00:23:45;6.60;99.90
47022;DHT22;32779;52.264;6.154;2023-04-25T00:26:11;6.60;99.90
47022;DHT22;32779;52.264;6.154;2023-04-25T00:28:37;6.50;99.90
47022;DHT22;32779;52.264;6.154;2023-04-25T00:31:03;6.60;99.90
47022;DHT22;32779;52.264;6.154;2023-04-25T00:33:29;6.60;99.90
47022;DHT22;32779;52.264;6.154;2023-04-25T00:35:55;6.60;99.90
47022;DHT22;32779;52.264;6.154;2023-04-25T00:38:21;6.70;99.90
47022;DHT22;32779;52.264;6.154;2023-04-25T00:40:47;6.70;99.90
47022;DHT22;32779;52.264;6.154;2023-04-25T00:43:12;6.70;99.90
47022;DHT22;32779;52.264;6.154;2023-04-25T00:45:39;6.70;99.90
47022;DHT22;32779;52.264;6.154;2023-04-25T00:48:05;6.70;99.90
47022;DHT22;32779;52.264;6.154;2023-04-25T00:50:33;6.70;99.90
47022;DHT22;32779;52.264;6.154;2023-04-25T00:52:59;6.80;99.90
47022;DHT22;32779;52.264;6.154;2023-04-25T00:55:25;6.70;99.90
47022;DHT22;32779;52.264;6.154;2023-04-25T00:57:51;6.70;99.90
47022;DHT22;32779;52.264;6.154;2023-04-25T01:00:17;6.60;99.90
47022;DHT22;32779;52.264;6.154;2023-04-25T01:02:43;6.60;99.90
47022;DHT22;32779;52.264;6.154;2023-04-25T01:05:10;6.60;99.90
47022;DHT22;32779;52.264;6.154;2023-04-25T01:07:37;6.60;99.90
47022;DHT22;32779;52.264;6.154;2023-04-25T01:10:04;6.60;99.90
47022;DHT22;32779;52.264;6.154;2023-04-25T01:12:31;6.60;99.90
47022;DHT22;32779;52.264;6.154;2023-04-25T01:14:57;6.60;99.90
47022;DHT22;32779;52.264;6.154;2023-04-25T01:17:23;6.50;99.90
47022;DHT22;32779;52.264;6.154;2023-04-25T01:19:49;6.50;99.90
47022;DHT22;32779;52.264;6.154;2023-04-25T01:22:16;6.50;99.90
47022;DHT22;32779;52.264;6.154;2023-04-25T01:24:42;6.30;99.90
47022;DHT22;32779;52.264;6.154;2023-04-25T01:27:08;6.30;99.90
47022;DHT22;32779;52.264;6.154;2023-04-25T01:29:34;6.20;99.90
47022;DHT22;32779;52.264;6.154;2023-04-25T01:32:00;6.20;99.90
47022;DHT22;32779;52.264;6.154;2023-04-25T01:34:26;6.10;99.90
47022;DHT22;32779;52.264;6.154;2023-04-25T01:36:52;6.00;99.90
47022;DHT22;32779;52.264;6.154;2023-04-25T01:39:19;6.00;99.90
47022;DHT22;32779;52.264;6.154;2023-04-25T01:41:48;5.90;99.90
47022;DHT22;32779;52.264;6.154;2023-04-25T01:44:14;5.80;99.90
47022;DHT22;32779;52.264;6.154;2023-04-25T01:46:40;5.70;99.90
47022;DHT22;32779;52.264;6.154;2023-04-25T01:49:06;5.60;99.90
47022;DHT22;32779;52.264;6.154;2023-04-25T01:51:32;5.60;99.90
47022;DHT22;32779;52.264;6.154;2023-04-25T01:53:58;5.50;99.90
47022;DHT22;32779;52.264;6.154;2023-04-25T01:56:23;5.60;99.90
47022;DHT22;32779;52.264;6.154;2023-04-25T01:58:49;5.60;99.90
47022;DHT22;32779;52.264;6.154;2023-04-25T02:01:15;5.70;99.90
47022;DHT22;32779;52.264;6.154;2023-04-25T02:03:40;5.80;99.90
47022;DHT22;32779;52.264;6.154;2023-04-25T02:06:06;5.70;99.90
47022;DHT22;32779;52.264;6.154;2023-04-25T02:08:32;5.80;99.90
47022;DHT22;32779;52.264;6.154;2023-04-25T02:10:58;5.80;99.90
47022;DHT22;32779;52.264;6.154;2023-04-25T02:13:23;5.80;99.90
47022;DHT22;32779;52.264;6.154;2023-04-25T02:15:49;5.80;99.90
47022;DHT22;32779;52.264;6.154;2023-04-25T02:18:14;5.80;99.90
47022;DHT22;32779;52.264;6.154;2023-04-25T02:20:42;5.80;99.90
47022;DHT22;32779;52.264;6.154;2023-04-25T02:23:07;5.80;99.90
47022;DHT22;32779;52.264;6.154;2023-04-25T02:25:33;5.80;99.90
47022;DHT22;32779;52.264;6.154;2023-04-25T02:27:59;5.80;99.90
47022;DHT22;32779;52.264;6.154;2023-04-25T02:30:24;5.70;99.90
47022;DHT22;32779;52.264;6.154;2023-04-25T02:32:50;5.70;99.90
47022;DHT22;32779;52.264;6.154;2023-04-25T02:35:16;5.70;99.90
47022;DHT22;32779;52.264;6.154;2023-04-25T02:37:41;5.60;99.90
47022;DHT22;32779;52.264;6.154;2023-04-25T02:40:08;5.60;99.90
47022;DHT22;32779;52.264;6.154;2023-04-25T02:42:33;5.60;99.90
47022;DHT22;32779;52.264;6.154;2023-04-25T02:44:59;5.50;99.90
47022;DHT22;32779;52.264;6.154;2023-04-25T02:47:25;5.40;99.90
47022;DHT22;32779;52.264;6.154;2023-04-25T02:49:50;5.40;99.90
47022;DHT22;32779;52.264;6.154;2023-04-25T02:52:16;5.30;99.90
47022;DHT22;32779;52.264;6.154;2023-04-25T02:54:42;5.30;99.90
47022;DHT22;32779;52.264;6.154;2023-04-25T02:57:07;5.30;99.90
47022;DHT22;32779;52.264;6.154;2023-04-25T02:59:33;5.20;99.90
47022;DHT22;32779;52.264;6.154;2023-04-25T03:01:59;5.20;99.90
47022;DHT22;32779;52.264;6.154;2023-04-25T03:04:24;5.20;99.90
47022;DHT22;32779;52.264;6.154;2023-04-25T03:06:51;5.20;99.90
47022;DHT22;32779;52.264;6.154;2023-04-25T03:09:16;5.20;99.90
47022;DHT22;32779;52.264;6.154;2023-04-25T03:11:43;5.20;99.90
47022;DHT22;32779;52.264;6.154;2023-04-25T03:14:09;5.20;99.90
47022;DHT22;32779;52.264;6.154;2023-04-25T03:16:35;5.20;99.90
47022;DHT22;32779;52.264;6.154;2023-04-25T03:19:00;5.20;99.90
47022;DHT22;32779;52.264;6.154;2023-04-25T03:21:26;5.20;99.90
47022;DHT22;32779;52.264;6.154;2023-04-25T03:23:52;5.30;99.90
47022;DHT22;32779;52.264;6.154;2023-04-25T03:26:17;5.30;99.90
47022;DHT22;32779;52.264;6.154;2023-04-25T03:28:43;5.30;99.90
47022;DHT22;32779;52.264;6.154;2023-04-25T03:31:09;5.30;99.90
47022;DHT22;32779;52.264;6.154;2023-04-25T03:33:34;5.30;99.90
47022;DHT22;32779;52.264;6.154;2023-04-25T03:36:00;5.40;99.90
47022;DHT22;32779;52.264;6.154;2023-04-25T03:38:25;5.40;99.90
47022;DHT22;32779;52.264;6.154;2023-04-25T03:40:51;5.40;99.90
47022;DHT22;32779;52.264;6.154;2023-04-25T03:43:17;5.40;99.90
47022;DHT22;32779;52.264;6.154;2023-04-25T03:45:42;5.40;99.90
47022;DHT22;32779;52.264;6.154;2023-04-25T03:48:08;5.40;99.90
47022;DHT22;32779;52.264;6.154;2023-04-25T03:50:34;5.40;99.90
47022;DHT22;32779;52.264;6.154;2023-04-25T03:53:00;5.40;99.90
47022;DHT22;32779;52.264;6.154;2023-04-25T03:55:25;5.50;99.90
47022;DHT22;32779;52.264;6.154;2023-04-25T03:57:51;5.50;99.90
47022;DHT22;32779;52.264;6.154;2023-04-25T04:00:16;5.50;99.90
47022;DHT22;32779;52.264;6.154;2023-04-25T04:02:42;5.40;99.90
47022;DHT22;32779;52.264;6.154;2023-04-25T04:05:08;5.40;99.90
47022;DHT22;32779;52.264;6.154;2023-04-25T04:07:33;5.40;99.90
47022;DHT22;32779;52.264;6.154;2023-04-25T04:10:11;5.40;99.90
47022;DHT22;32779;52.264;6.154;2023-04-25T04:12:37;5.50;99.90
47022;DHT22;32779;52.264;6.154;2023-04-25T04:15:04;5.40;99.90
47022;DHT22;32779;52.264;6.154;2023-04-25T04:17:30;5.40;99.90
47022;DHT22;32779;52.264;6.154;2023-04-25T04:19:56;5.40;99.90
47022;DHT22;32779;52.264;6.154;2023-04-25T04:22:22;5.30;99.90
47022;DHT22;32779;52.264;6.154;2023-04-25T04:24:48;5.30;99.90
47022;DHT22;32779;52.264;6.154;2023-04-25T04:27:15;5.20;99.90
47022;DHT22;32779;52.264;6.154;2023-04-25T04:29:43;5.20;99.90
47022;DHT22;32779;52.264;6.154;2023-04-25T04:32:08;5.20;99.90
47022;DHT22;32779;52.264;6.154;2023-04-25T04:34:34;5.20;99.90
47022;DHT22;32779;52.264;6.154;2023-04-25T04:37:00;5.10;99.90
47022;DHT22;32779;52.264;6.154;2023-04-25T04:39:26;5.10;99.90
47022;DHT22;32779;52.264;6.154;2023-04-25T04:41:51;5.10;99.90
47022;DHT22;32779;52.264;6.154;2023-04-25T04:44:17;5.10;99.90
47022;DHT22;32779;52.264;6.154;2023-04-25T04:46:43;5.00;99.90
47022;DHT22;32779;52.264;6.154;2023-04-25T04:49:10;5.00;99.90
47022;DHT22;32779;52.264;6.154;2023-04-25T04:51:36;5.00;99.90
47022;DHT22;32779;52.264;6.154;2023-04-25T04:54:03;5.00;99.90
47022;DHT22;32779;52.264;6.154;2023-04-25T04:56:29;5.00;99.90
47022;DHT22;32779;52.264;6.154;2023-04-25T04:58:56;5.00;99.90
47022;DHT22;32779;52.264;6.154;2023-04-25T05:01:22;5.00;99.90
47022;DHT22;32779;52.264;6.154;2023-04-25T05:03:47;5.00;99.90
47022;DHT22;32779;52.264;6.154;2023-04-25T05:06:13;5.00;99.90
47022;DHT22;32779;52.264;6.154;2023-04-25T05:08:38;5.00;99.90
47022;DHT22;32779;52.264;6.154;2023-04-25T05:11:04;5.00;99.90
47022;DHT22;32779;52.264;6.154;2023-04-25T05:13:29;5.10;99.90
47022;DHT22;32779;52.264;6.154;2023-04-25T05:15:55;5.10;99.90
47022;DHT22;32779;52.264;6.154;2023-04-25T05:18:21;5.20;99.90
47022;DHT22;32779;52.264;6.154;2023-04-25T05:20:46;5.20;99.90
47022;DHT22;32779;52.264;6.154;2023-04-25T05:23:12;5.20;99.90
47022;DHT22;32779;52.264;6.154;2023-04-25T05:25:37;5.30;99.90
47022;DHT22;32779;52.264;6.154;2023-04-25T05:28:03;5.30;99.90
47022;DHT22;32779;52.264;6.154;2023-04-25T05:30:30;5.30;99.90
47022;DHT22;32779;52.264;6.154;2023-04-25T05:32:55;5.30;99.90
47022;DHT22;32779;52.264;6.154;2023-04-25T05:35:21;5.40;99.90
47022;DHT22;32779;52.264;6.154;2023-04-25T05:37:46;5.40;99.90
47022;DHT22;32779;52.264;6.154;2023-04-25T05:40:12;5.40;99.90
47022;DHT22;32779;52.264;6.154;2023-04-25T05:42:38;5.40;99.90
47022;DHT22;32779;52.264;6.154;2023-04-25T05:45:04;5.40;99.90
47022;DHT22;32779;52.264;6.154;2023-04-25T05:47:30;5.40;99.90
47022;DHT22;32779;52.264;6.154;2023-04-25T05:49:55;5.50;99.90
47022;DHT22;32779;52.264;6.154;2023-04-25T05:52:21;5.50;99.90
47022;DHT22;32779;52.264;6.154;2023-04-25T05:54:46;5.50;99.90
47022;DHT22;32779;52.264;6.154;2023-04-25T05:57:23;5.50;99.90
47022;DHT22;32779;52.264;6.154;2023-04-25T05:59:48;5.60;99.90
47022;DHT22;32779;52.264;6.154;2023-04-25T06:02:14;5.60;99.90
47022;DHT22;32779;52.264;6.154;2023-04-25T06:04:40;5.60;99.90
47022;DHT22;32779;52.264;6.154;2023-04-25T06:07:05;5.70;99.90
47022;DHT22;32779;52.264;6.154;2023-04-25T06:09:31;5.70;99.90
47022;DHT22;32779;52.264;6.154;2023-04-25T06:11:57;5.70;99.90
47022;DHT22;32779;52.264;6.154;2023-04-25T06:14:22;5.80;99.90
47022;DHT22;32779;52.264;6.154;2023-04-25T06:16:48;5.80;99.90
47022;DHT22;32779;52.264;6.154;2023-04-25T06:19:13;5.90;99.90
47022;DHT22;32779;52.264;6.154;2023-04-25T06:21:39;6.00;99.90
47022;DHT22;32779;52.264;6.154;2023-04-25T06:24:05;6.00;99.90
47022;DHT22;32779;52.264;6.154;2023-04-25T06:26:30;6.10;99.90
47022;DHT22;32779;52.264;6.154;2023-04-25T06:28:56;6.10;99.90
47022;DHT22;32779;52.264;6.154;2023-04-25T06:31:21;6.10;99.90
47022;DHT22;32779;52.264;6.154;2023-04-25T06:33:47;6.20;99.90
47022;DHT22;32779;52.264;6.154;2023-04-25T06:36:13;6.20;99.90
47022;DHT22;32779;52.264;6.154;2023-04-25T06:38:39;6.30;99.90
47022;DHT22;32779;52.264;6.154;2023-04-25T06:41:04;6.50;99.90
47022;DHT22;32779;52.264;6.154;2023-04-25T06:43:30;6.70;99.90
47022;DHT22;32779;52.264;6.154;2023-04-25T06:45:59;6.90;99.90
47022;DHT22;32779;52.264;6.154;2023-04-25T06:48:26;7.20;99.90
47022;DHT22;32779;52.264;6.154;2023-04-25T06:50:52;7.50;99.90
47022;DHT22;32779;52.264;6.154;2023-04-25T06:53:17;7.70;99.90
47022;DHT22;32779;52.264;6.154;2023-04-25T06:55:43;7.80;99.90
47022;DHT22;32779;52.264;6.154;2023-04-25T06:58:09;7.80;99.90
47022;DHT22;32779;52.264;6.154;2023-04-25T07:00:34;7.90;99.90
47022;DHT22;32779;52.264;6.154;2023-04-25T07:03:01;7.90;99.90
47022;DHT22;32779;52.264;6.154;2023-04-25T07:05:27;7.90;99.90
47022;DHT22;32779;52.264;6.154;2023-04-25T07:07:53;8.00;99.90
47022;DHT22;32779;52.264;6.154;2023-04-25T07:10:18;8.00;99.90
47022;DHT22;32779;52.264;6.154;2023-04-25T07:12:44;7.90;99.90
47022;DHT22;32779;52.264;6.154;2023-04-25T07:15:09;7.90;99.90
47022;DHT22;32779;52.264;6.154;2023-04-25T07:17:37;7.90;99.90
47022;DHT22;32779;52.264;6.154;2023-04-25T07:20:04;8.00;99.90
47022;DHT22;32779;52.264;6.154;2023-04-25T07:22:31;8.00;99.90
47022;DHT22;32779;52.264;6.154;2023-04-25T07:24:57;8.00;99.90
47022;DHT22;32779;52.264;6.154;2023-04-25T07:27:23;8.20;99.90
47022;DHT22;32779;52.264;6.154;2023-04-25T07:29:48;8.20;99.90
47022;DHT22;32779;52.264;6.154;2023-04-25T07:32:14;8.20;99.90
47022;DHT22;32779;52.264;6.154;2023-04-25T07:34:40;8.30;99.90
47022;DHT22;32779;52.264;6.154;2023-04-25T07:37:06;8.50;99.90
47022;DHT22;32779;52.264;6.154;2023-04-25T07:39:32;8.70;99.90
47022;DHT22;32779;52.264;6.154;2023-04-25T07:41:57;8.90;99.90
47022;DHT22;32779;52.264;6.154;2023-04-25T07:44:27;9.10;99.90
47022;DHT22;32779;52.264;6.154;2023-04-25T07:46:52;9.30;99.90
47022;DHT22;32779;52.264;6.154;2023-04-25T07:49:18;9.40;99.90
47022;DHT22;32779;52.264;6.154;2023-04-25T07:51:44;9.30;99.90
47022;DHT22;32779;52.264;6.154;2023-04-25T07:54:14;9.20;99.90
47022;DHT22;32779;52.264;6.154;2023-04-25T07:56:40;8.80;99.90
47022;DHT22;32779;52.264;6.154;2023-04-25T07:59:06;8.30;99.90
47022;DHT22;32779;52.264;6.154;2023-04-25T08:01:31;7.80;99.90
47022;DHT22;32779;52.264;6.154;2023-04-25T08:03:57;7.30;99.90
47022;DHT22;32779;52.264;6.154;2023-04-25T08:06:22;6.80;99.90
47022;DHT22;32779;52.264;6.154;2023-04-25T08:08:48;6.40;99.90
47022;DHT22;32779;52.264;6.154;2023-04-25T08:11:14;6.20;99.90
47022;DHT22;32779;52.264;6.154;2023-04-25T08:13:39;6.20;99.90
47022;DHT22;32779;52.264;6.154;2023-04-25T08:16:05;6.10;99.90
47022;DHT22;32779;52.264;6.154;2023-04-25T08:18:30;6.00;99.90
47022;DHT22;32779;52.264;6.154;2023-04-25T08:20:56;6.00;99.90
47022;DHT22;32779;52.264;6.154;2023-04-25T08:23:22;6.10;99.90
47022;DHT22;32779;52.264;6.154;2023-04-25T08:25:47;6.20;99.90
47022;DHT22;32779;52.264;6.154;2023-04-25T08:28:13;6.40;99.90
47022;DHT22;32779;52.264;6.154;2023-04-25T08:30:40;6.60;99.90
47022;DHT22;32779;52.264;6.154;2023-04-25T08:33:07;6.80;99.90
47022;DHT22;32779;52.264;6.154;2023-04-25T08:35:33;7.00;99.90
47022;DHT22;32779;52.264;6.154;2023-04-25T08:37:58;7.20;99.90
47022;DHT22;32779;52.264;6.154;2023-04-25T08:40:27;7.40;99.90
47022;DHT22;32779;52.264;6.154;2023-04-25T08:42:59;7.80;99.90
47022;DHT22;32779;52.264;6.154;2023-04-25T08:45:27;8.10;99.90
47022;DHT22;32779;52.264;6.154;2023-04-25T08:47:54;8.40;99.90
47022;DHT22;32779;52.264;6.154;2023-04-25T08:50:22;8.70;99.90
47022;DHT22;32779;52.264;6.154;2023-04-25T08:52:50;9.00;99.90
47022;DHT22;32779;52.264;6.154;2023-04-25T08:55:18;9.20;99.90
47022;DHT22;32779;52.264;6.154;2023-04-25T08:57:44;9.30;99.90
47022;DHT22;32779;52.264;6.154;2023-04-25T09:00:11;9.50;99.90
47022;DHT22;32779;52.264;6.154;2023-04-25T09:02:39;9.50;99.90
47022;DHT22;32779;52.264;6.154;2023-04-25T09:05:05;9.70;99.90
47022;DHT22;32779;52.264;6.154;2023-04-25T09:07:32;9.80;99.90
47022;DHT22;32779;52.264;6.154;2023-04-25T09:09:58;9.80;99.90
47022;DHT22;32779;52.264;6.154;2023-04-25T09:12:27;9.70;99.90
47022;DHT22;32779;52.264;6.154;2023-04-25T09:15:13;9.30;99.90
47022;DHT22;32779;52.264;6.154;2023-04-25T09:17:41;8.60;99.90
47022;DHT22;32779;52.264;6.154;2023-04-25T09:20:11;8.20;99.90
47022;DHT22;32779;52.264;6.154;2023-04-25T09:22:38;7.60;99.90
47022;DHT22;32779;52.264;6.154;2023-04-25T09:25:11;7.30;99.90
47022;DHT22;32779;52.264;6.154;2023-04-25T09:27:52;7.20;99.90
47022;DHT22;32779;52.264;6.154;2023-04-25T09:30:18;7.00;99.90
47022;DHT22;32779;52.264;6.154;2023-04-25T09:32:44;7.00;99.90
47022;DHT22;32779;52.264;6.154;2023-04-25T09:35:10;7.10;99.90
47022;DHT22;32779;52.264;6.154;2023-04-25T09:37:48;7.20;99.90
47022;DHT22;32779;52.264;6.154;2023-04-25T09:40:13;7.30;99.90
47022;DHT22;32779;52.264;6.154;2023-04-25T09:42:41;7.50;99.90
47022;DHT22;32779;52.264;6.154;2023-04-25T09:45:07;7.70;99.90
47022;DHT22;32779;52.264;6.154;2023-04-25T09:47:37;8.00;99.90
47022;DHT22;32779;52.264;6.154;2023-04-25T09:50:03;8.20;99.90
47022;DHT22;32779;52.264;6.154;2023-04-25T09:52:29;8.40;99.90
47022;DHT22;32779;52.264;6.154;2023-04-25T09:54:55;8.60;99.90
47022;DHT22;32779;52.264;6.154;2023-04-25T09:57:23;8.90;99.90
47022;DHT22;32779;52.264;6.154;2023-04-25T09:59:50;9.00;99.90
47022;DHT22;32779;52.264;6.154;2023-04-25T10:02:18;9.10;99.90
47022;DHT22;32779;52.264;6.154;2023-04-25T10:04:51;9.20;99.90
47022;DHT22;32779;52.264;6.154;2023-04-25T10:07:20;9.30;99.90
47022;DHT22;32779;52.264;6.154;2023-04-25T10:09:49;9.50;99.90
47022;DHT22;32779;52.264;6.154;2023-04-25T10:12:17;9.70;99.90
47022;DHT22;32779;52.264;6.154;2023-04-25T10:14:43;9.80;99.90
47022;DHT22;32779;52.264;6.154;2023-04-25T10:17:10;9.80;99.90
47022;DHT22;32779;52.264;6.154;2023-04-25T10:19:39;9.90;99.90
47022;DHT22;32779;52.264;6.154;2023-04-25T10:22:13;10.00;99.90
47022;DHT22;32779;52.264;6.154;2023-04-25T10:24:40;9.80;99.90
47022;DHT22;32779;52.264;6.154;2023-04-25T10:27:07;9.60;99.90
47022;DHT22;32779;52.264;6.154;2023-04-25T10:29:33;9.40;99.90
47022;DHT22;32779;52.264;6.154;2023-04-25T10:31:58;9.50;99.90
47022;DHT22;32779;52.264;6.154;2023-04-25T10:34:38;9.50;99.90
47022;DHT22;32779;52.264;6.154;2023-04-25T10:37:05;9.40;99.90
47022;DHT22;32779;52.264;6.154;2023-04-25T10:39:33;9.30;99.90
47022;DHT22;32779;52.264;6.154;2023-04-25T10:42:01;9.40;99.90
47022;DHT22;32779;52.264;6.154;2023-04-25T10:44:28;9.60;99.90
47022;DHT22;32779;52.264;6.154;2023-04-25T10:47:01;9.70;99.90
47022;DHT22;32779;52.264;6.154;2023-04-25T10:49:48;9.90;99.90
47022;DHT22;32779;52.264;6.154;2023-04-25T10:52:27;9.80;99.90
47022;DHT22;32779;52.264;6.154;2023-04-25T10:54:56;9.70;99.90
47022;DHT22;32779;52.264;6.154;2023-04-25T10:59:58;9.90;99.90
47022;DHT22;32779;52.264;6.154;2023-04-25T11:02:26;9.90;99.90
47022;DHT22;32779;52.264;6.154;2023-04-25T11:04:53;9.80;99.90
47022;DHT22;32779;52.264;6.154;2023-04-25T11:07:48;9.90;99.90
47022;DHT22;32779;52.264;6.154;2023-04-25T11:10:14;10.00;99.90
47022;DHT22;32779;52.264;6.154;2023-04-25T11:12:40;10.00;99.90
47022;DHT22;32779;52.264;6.154;2023-04-25T11:15:07;10.00;99.90
47022;DHT22;32779;52.264;6.154;2023-04-25T11:17:33;10.10;99.90
47022;DHT22;32779;52.264;6.154;2023-04-25T11:19:59;10.10;99.90
47022;DHT22;32779;52.264;6.154;2023-04-25T11:22:27;10.20;99.90
47022;DHT22;32779;52.264;6.154;2023-04-25T11:24:52;10.20;99.90
47022;DHT22;32779;52.264;6.154;2023-04-25T11:27:18;10.20;99.70
47022;DHT22;32779;52.264;6.154;2023-04-25T11:29:44;10.30;99.90
47022;DHT22;32779;52.264;6.154;2023-04-25T11:32:10;10.30;99.90
47022;DHT22;32779;52.264;6.154;2023-04-25T11:34:35;10.50;99.90
47022;DHT22;32779;52.264;6.154;2023-04-25T11:37:02;10.50;99.90
47022;DHT22;32779;52.264;6.154;2023-04-25T11:39:28;10.30;99.90
47022;DHT22;32779;52.264;6.154;2023-04-25T11:41:54;10.20;99.90
47022;DHT22;32779;52.264;6.154;2023-04-25T11:44:21;10.10;99.90
47022;DHT22;32779;52.264;6.154;2023-04-25T11:46:47;9.90;99.90
47022;DHT22;32779;52.264;6.154;2023-04-25T11:49:14;9.90;99.90
47022;DHT22;32779;52.264;6.154;2023-04-25T11:51:41;9.90;99.90
47022;DHT22;32779;52.264;6.154;2023-04-25T11:54:07;10.00;99.90
47022;DHT22;32779;52.264;6.154;2023-04-25T11:56:33;10.10;99.90
47022;DHT22;32779;52.264;6.154;2023-04-25T11:59:03;10.10;99.90
47022;DHT22;32779;52.264;6.154;2023-04-25T12:01:33;10.10;99.90
47022;DHT22;32779;52.264;6.154;2023-04-25T12:04:29;10.30;99.90
47022;DHT22;32779;52.264;6.154;2023-04-25T12:06:55;10.20;99.90
47022;DHT22;32779;52.264;6.154;2023-04-25T12:09:28;10.30;99.90
47022;DHT22;32779;52.264;6.154;2023-04-25T12:11:55;10.20;99.20
47022;DHT22;32779;52.264;6.154;2023-04-25T12:14:23;10.20;99.90
47022;DHT22;32779;52.264;6.154;2023-04-25T12:16:50;10.30;99.90
47022;DHT22;32779;52.264;6.154;2023-04-25T12:19:18;10.40;99.90
47022;DHT22;32779;52.264;6.154;2023-04-25T12:21:44;10.20;98.10
47022;DHT22;32779;52.264;6.154;2023-04-25T12:24:23;10.00;98.20
47022;DHT22;32779;52.264;6.154;2023-04-25T12:29:23;10.00;98.70
47022;DHT22;32779;52.264;6.154;2023-04-25T12:31:51;10.00;98.10
47022;DHT22;32779;52.264;6.154;2023-04-25T12:34:19;10.10;97.60
47022;DHT22;32779;52.264;6.154;2023-04-25T12:36:45;10.10;99.40
47022;DHT22;32779;52.264;6.154;2023-04-25T12:39:29;10.20;99.90
47022;DHT22;32779;52.264;6.154;2023-04-25T12:41:55;10.40;99.90
47022;DHT22;32779;52.264;6.154;2023-04-25T12:44:21;10.30;99.90
47022;DHT22;32779;52.264;6.154;2023-04-25T12:46:46;10.30;99.90
47022;DHT22;32779;52.264;6.154;2023-04-25T12:49:12;10.20;99.90
47022;DHT22;32779;52.264;6.154;2023-04-25T12:51:38;10.20;99.90
47022;DHT22;32779;52.264;6.154;2023-04-25T12:54:05;10.20;99.30
47022;DHT22;32779;52.264;6.154;2023-04-25T12:56:32;10.10;98.70
47022;DHT22;32779;52.264;6.154;2023-04-25T12:58:58;10.10;99.10
47022;DHT22;32779;52.264;6.154;2023-04-25T13:01:24;10.10;99.10
47022;DHT22;32779;52.264;6.154;2023-04-25T13:03:50;10.10;98.70
47022;DHT22;32779;52.264;6.154;2023-04-25T13:06:17;10.10;98.80
47022;DHT22;32779;52.264;6.154;2023-04-25T13:08:43;10.10;99.90
47022;DHT22;32779;52.264;6.154;2023-04-25T13:11:09;10.00;99.90
47022;DHT22;32779;52.264;6.154;2023-04-25T13:13:34;9.90;99.90
47022;DHT22;32779;52.264;6.154;2023-04-25T13:16:04;9.80;99.90
47022;DHT22;32779;52.264;6.154;2023-04-25T13:18:30;9.80;99.90
47022;DHT22;32779;52.264;6.154;2023-04-25T13:20:56;9.80;99.90
47022;DHT22;32779;52.264;6.154;2023-04-25T13:23:22;9.80;99.90
47022;DHT22;32779;52.264;6.154;2023-04-25T13:25:48;9.90;99.90
47022;DHT22;32779;52.264;6.154;2023-04-25T13:28:14;10.00;99.90
47022;DHT22;32779;52.264;6.154;2023-04-25T13:30:40;10.10;99.90
47022;DHT22;32779;52.264;6.154;2023-04-25T13:33:06;10.20;99.90
47022;DHT22;32779;52.264;6.154;2023-04-25T13:35:33;10.20;99.20
47022;DHT22;32779;52.264;6.154;2023-04-25T13:37:59;10.20;99.70
47022;DHT22;32779;52.264;6.154;2023-04-25T13:40:26;10.10;99.90
47022;DHT22;32779;52.264;6.154;2023-04-25T13:42:52;10.10;99.60
47022;DHT22;32779;52.264;6.154;2023-04-25T13:45:18;10.10;99.50
47022;DHT22;32779;52.264;6.154;2023-04-25T13:47:44;10.20;98.60
47022;DHT22;32779;52.264;6.154;2023-04-25T13:50:10;10.40;99.90
47022;DHT22;32779;52.264;6.154;2023-04-25T13:52:35;10.50;98.90
47022;DHT22;32779;52.264;6.154;2023-04-25T13:55:01;10.60;99.90
47022;DHT22;32779;52.264;6.154;2023-04-25T13:57:30;10.90;99.20
47022;DHT22;32779;52.264;6.154;2023-04-25T13:59:56;10.90;97.80
47022;DHT22;32779;52.264;6.154;2023-04-25T14:02:22;11.00;97.90
47022;DHT22;32779;52.264;6.154;2023-04-25T14:04:48;11.00;98.40
47022;DHT22;32779;52.264;6.154;2023-04-25T14:07:14;10.90;97.20
47022;DHT22;32779;52.264;6.154;2023-04-25T14:09:43;10.60;97.20
47022;DHT22;32779;52.264;6.154;2023-04-25T14:12:09;10.20;96.30
47022;DHT22;32779;52.264;6.154;2023-04-25T14:14:35;10.00;95.70
47022;DHT22;32779;52.264;6.154;2023-04-25T14:17:00;9.80;96.30
47022;DHT22;32779;52.264;6.154;2023-04-25T14:19:26;9.80;97.60
47022;DHT22;32779;52.264;6.154;2023-04-25T14:21:51;9.90;98.70
47022;DHT22;32779;52.264;6.154;2023-04-25T14:24:17;10.00;98.50
47022;DHT22;32779;52.264;6.154;2023-04-25T14:26:43;10.00;99.30
47022;DHT22;32779;52.264;6.154;2023-04-25T14:29:09;9.90;98.50
47022;DHT22;32779;52.264;6.154;2023-04-25T14:31:38;9.80;99.00
47022;DHT22;32779;52.264;6.154;2023-04-25T14:34:04;9.60;99.10
47022;DHT22;32779;52.264;6.154;2023-04-25T14:36:31;9.60;99.80
47022;DHT22;32779;52.264;6.154;2023-04-25T14:38:57;9.50;99.80
47022;DHT22;32779;52.264;6.154;2023-04-25T14:41:23;9.60;99.90
47022;DHT22;32779;52.264;6.154;2023-04-25T14:43:48;9.70;99.90
47022;DHT22;32779;52.264;6.154;2023-04-25T14:46:14;9.80;99.90
47022;DHT22;32779;52.264;6.154;2023-04-25T14:48:41;9.80;99.90
47022;DHT22;32779;52.264;6.154;2023-04-25T14:51:07;9.70;98.60
47022;DHT22;32779;52.264;6.154;2023-04-25T14:53:32;9.60;98.60
47022;DHT22;32779;52.264;6.154;2023-04-25T14:55:58;9.50;98.00
47022;DHT22;32779;52.264;6.154;2023-04-25T14:58:24;9.40;98.70
47022;DHT22;32779;52.264;6.154;2023-04-25T15:00:49;9.40;99.00
47022;DHT22;32779;52.264;6.154;2023-04-25T15:03:16;9.40;99.30
47022;DHT22;32779;52.264;6.154;2023-04-25T15:05:42;9.50;99.00
47022;DHT22;32779;52.264;6.154;2023-04-25T15:08:08;9.60;98.50
47022;DHT22;32779;52.264;6.154;2023-04-25T15:10:34;9.70;97.30
47022;DHT22;32779;52.264;6.154;2023-04-25T15:12:59;9.70;97.10
47022;DHT22;32779;52.264;6.154;2023-04-25T15:15:25;9.80;98.40
47022;DHT22;32779;52.264;6.154;2023-04-25T15:17:52;9.80;96.70
47022;DHT22;32779;52.264;6.154;2023-04-25T15:20:20;9.80;96.60
47022;DHT22;32779;52.264;6.154;2023-04-25T15:22:46;9.80;97.60
47022;DHT22;32779;52.264;6.154;2023-04-25T15:25:14;10.00;98.40
47022;DHT22;32779;52.264;6.154;2023-04-25T15:27:40;10.00;98.30
47022;DHT22;32779;52.264;6.154;2023-04-25T15:30:10;10.00;96.30
47022;DHT22;32779;52.264;6.154;2023-04-25T15:32:36;10.00;96.70
47022;DHT22;32779;52.264;6.154;2023-04-25T15:35:04;10.00;96.20
47022;DHT22;32779;52.264;6.154;2023-04-25T15:37:29;10.00;96.00
47022;DHT22;32779;52.264;6.154;2023-04-25T15:40:16;10.00;95.60
47022;DHT22;32779;52.264;6.154;2023-04-25T15:42:47;9.90;95.60
47022;DHT22;32779;52.264;6.154;2023-04-25T15:45:13;9.80;96.30